Time;durP1;ratioP1;P1;durP2;ratioP2;P2;SDS_P1;SDS_P2;PMS_P1;PMS_P2;Temp;Humidity;BMP_temperature;BMP_pressure;BME280_temperature;BME280_humidity;BME280_pressure;Samples;Min_cycle;Max_cycle;Signal;HPM_P1;HPM_P2
2021/12/17 00:05:46;;;;;;;;;12.00;9.33;;;;;11.70;48.41;100058.50;6225486;27;99108;-66
2021/12/17 00:08:55;;;;;;;;;12.00;12.00;;;;;11.70;48.74;100070.16;6219669;28;96576;-64
2021/12/17 00:11:59;;;;;;;;;11.00;9.00;;;;;11.74;48.70;100062.50;6237236;28;96546;-65
2021/12/17 00:15:04;;;;;;;;;10.00;10.00;;;;;11.71;48.58;100052.91;6238991;28;96964;-65
2021/12/17 00:18:14;;;;;;;;;11.20;10.00;;;;;11.74;48.47;100059.81;6221463;27;98404;-65
2021/12/17 00:48:35;;;;;;;;;13.40;11.40;;;;;11.64;48.20;100052.03;6263277;27;96591;-65
2021/12/17 00:51:56;;;;;;;;;9.40;9.00;;;;;11.71;48.15;100058.31;6243163;27;99480;-66
2021/12/17 00:55:02;;;;;;;;;11.00;9.00;;;;;11.77;47.89;100072.09;6221201;28;97184;-66
2021/12/17 00:58:06;;;;;;;;;11.00;9.00;;;;;11.86;47.94;100073.59;6218550;28;97487;-65
2021/12/17 01:01:10;;;;;;;;;12.00;11.40;;;;;11.75;47.86;100061.47;6219967;28;96864;-66
2021/12/17 01:04:15;;;;;;;;;10.00;9.00;;;;;11.68;47.87;100057.88;6219979;28;96975;-65
2021/12/17 01:07:20;;;;;;;;;12.00;11.00;;;;;11.61;47.93;100059.72;6217164;28;96920;-65
2021/12/17 01:10:27;;;;;;;;;9.00;7.60;;;;;11.56;48.05;100056.78;6206094;28;97976;-65
2021/12/17 01:13:58;;;;;;;;;8.00;8.00;;;;;11.45;47.97;100044.66;6238933;28;97061;-65
2021/12/17 01:17:04;;;;;;;;;8.50;8.00;;;;;11.50;48.30;100052.16;6241205;28;98125;-65
2021/12/17 01:20:34;;;;;;;;;8.00;8.00;;;;;11.54;48.13;100042.63;6224103;28;97433;-65
2021/12/17 01:24:04;;;;;;;;;8.25;7.75;;;;;11.53;48.19;100035.59;6205335;28;96588;-66
2021/12/17 01:44:51;;;;;;;;;10.20;10.00;;;;;11.50;48.39;100049.47;6207930;28;98282;-65
2021/12/17 01:47:59;;;;;;;;;10.00;8.00;;;;;11.44;48.53;100053.78;6241844;28;96478;-65
2021/12/17 02:01:27;;;;;;;;;10.40;9.00;;;;;11.33;48.40;100054.38;6206332;28;98465;-66
2021/12/17 02:04:33;;;;;;;;;10.00;9.00;;;;;11.19;48.60;100042.63;6206964;28;98431;-64
2021/12/17 02:07:38;;;;;;;;;9.00;8.00;;;;;11.25;48.83;100028.34;6255176;27;98118;-65
2021/12/17 02:11:19;;;;;;;;;8.20;6.80;;;;;11.31;48.69;100026.72;6222702;28;96635;-66
2021/12/17 02:21:28;;;;;;;;;11.00;9.00;;;;;11.27;48.36;100015.50;6223134;28;97271;-66
2021/12/17 02:31:26;;;;;;;;;8.00;7.00;;;;;11.15;48.08;100008.97;6221742;28;96367;-66
2021/12/17 02:34:55;;;;;;;;;9.00;8.75;;;;;11.30;47.97;100011.56;6223511;28;96345;-66
2021/12/17 02:38:02;;;;;;;;;8.00;8.00;;;;;11.16;48.02;100013.34;6241912;27;96535;-66
2021/12/17 02:48:24;;;;;;;;;8.00;8.00;;;;;11.16;48.02;100007.09;6245839;27;98486;-64
2021/12/17 02:51:27;;;;;;;;;10.50;9.50;;;;;11.23;47.95;100008.84;6229663;27;96652;-65
2021/12/17 02:54:35;;;;;;;;;9.00;7.00;;;;;11.14;47.35;100012.69;6266479;27;97484;-64
2021/12/17 02:57:38;;;;;;;;;10.60;8.00;;;;;11.13;47.37;100012.91;6266229;27;97066;-64
2021/12/17 03:00:44;;;;;;;;;7.80;7.00;;;;;11.14;47.38;100017.28;6263987;27;96959;-65
2021/12/17 03:03:51;;;;;;;;;6.20;6.00;;;;;11.29;47.42;100020.69;6247732;27;98430;-65
2021/12/17 03:06:55;;;;;;;;;8.60;8.60;;;;;11.38;47.23;100024.06;6236223;28;97770;-65
2021/12/17 03:10:03;;;;;;;;;9.00;8.40;;;;;11.40;46.97;100033.63;6243294;27;97418;-65
2021/12/17 03:13:07;;;;;;;;;9.40;8.00;;;;;11.55;46.76;100033.50;6262028;27;97201;-65
2021/12/17 03:16:22;;;;;;;;;10.00;8.60;;;;;11.61;46.25;100032.72;6265677;27;96585;-64
2021/12/17 03:23:25;;;;;;;;;10.60;9.00;;;;;11.65;46.56;100028.56;6246532;27;98566;-65
2021/12/17 03:26:14;;;;;;;;;9.40;9.00;;;;;11.58;46.34;100028.53;6246741;27;97243;-64
2021/12/17 03:29:18;;;;;;;;;8.00;7.00;;;;;11.52;46.13;100023.94;6254204;27;96485;-64
2021/12/17 03:32:25;;;;;;;;;9.40;9.40;;;;;11.64;46.00;100018.78;6241092;27;96661;-66
2021/12/17 03:35:28;;;;;;;;;7.80;7.80;;;;;11.63;45.80;100009.84;6224219;27;99604;-66
2021/12/17 03:38:32;;;;;;;;;8.50;8.00;;;;;11.71;45.47;100019.66;6261673;27;96743;-65
2021/12/17 03:41:39;;;;;;;;;8.00;7.60;;;;;11.73;45.40;100022.22;6246210;27;97036;-66
2021/12/17 03:44:45;;;;;;;;;7.00;6.40;;;;;11.68;45.47;100031.69;6244828;27;97422;-65
2021/12/17 03:47:59;;;;;;;;;6.40;6.40;;;;;11.69;45.42;100038.78;6247174;27;96658;-65
2021/12/17 03:51:03;;;;;;;;;8.60;7.60;;;;;11.73;45.24;100034.66;6264073;27;97419;-66
2021/12/17 03:54:06;;;;;;;;;8.25;8.00;;;;;11.71;45.22;100027.78;6263932;27;96937;-65
2021/12/17 03:57:13;;;;;;;;;7.00;6.60;;;;;11.55;44.97;100026.22;6245800;27;97407;-66
2021/12/17 04:00:21;;;;;;;;;8.00;6.00;;;;;11.58;45.13;100025.00;6227053;27;97526;-66
2021/12/17 04:03:31;;;;;;;;;8.00;7.40;;;;;11.57;45.19;100028.75;6225203;28;97507;-65
2021/12/17 04:06:41;;;;;;;;;9.20;6.60;;;;;11.57;44.88;100021.47;6219197;28;96624;-66
2021/12/17 04:10:04;;;;;;;;;7.60;7.00;;;;;11.50;44.82;100026.00;6264994;27;96417;-66
2021/12/17 04:13:27;;;;;;;;;6.00;6.00;;;;;11.40;45.24;100022.81;6237857;28;96910;-65
2021/12/17 04:16:36;;;;;;;;;8.00;7.00;;;;;11.56;45.22;100025.22;6226454;27;97240;-65
2021/12/17 04:19:39;;;;;;;;;7.60;7.00;;;;;11.44;45.22;100025.97;6244944;27;96437;-65
2021/12/17 04:22:42;;;;;;;;;8.00;7.00;;;;;11.48;45.47;100022.69;6237118;28;97536;-64
2021/12/17 04:25:46;;;;;;;;;7.00;6.75;;;;;11.43;45.58;100013.50;6203272;28;96643;-66
2021/12/17 04:28:52;;;;;;;;;9.00;9.00;;;;;11.35;45.12;100010.97;6243504;27;96649;-65
2021/12/17 04:31:58;;;;;;;;;8.25;8.00;;;;;11.41;45.26;100010.16;6224600;27;96535;-65
2021/12/17 04:35:08;;;;;;;;;8.00;8.00;;;;;11.45;45.16;100004.16;6237047;27;96584;-64
2021/12/17 04:38:25;;;;;;;;;8.00;7.50;;;;;11.46;45.13;100016.63;6240748;27;97158;-65
2021/12/17 04:41:47;;;;;;;;;9.00;8.00;;;;;11.52;45.11;100005.03;6221267;28;96784;-64
2021/12/17 04:44:57;;;;;;;;;10.00;7.33;;;;;11.60;45.12;100007.56;6232957;27;96998;-65
2021/12/17 04:58:11;;;;;;;;;8.00;7.00;;;;;11.40;45.28;100016.59;6241012;28;97216;-66
2021/12/17 05:01:16;;;;;;;;;8.60;8.60;;;;;11.45;45.01;100001.47;6221734;28;99053;-65
2021/12/17 05:04:24;;;;;;;;;8.00;7.00;;;;;11.38;44.73;100000.59;6223021;28;96677;-67
2021/12/17 05:07:28;;;;;;;;;7.00;7.00;;;;;11.44;44.87;99989.00;6228024;27;96731;-66
2021/12/17 05:10:49;;;;;;;;;8.00;8.00;;;;;11.27;45.07;99987.66;6224794;28;97471;-66
2021/12/17 05:20:45;;;;;;;;;6.80;6.20;;;;;11.24;45.26;99996.16;6243673;27;97379;-65
2021/12/17 05:23:51;;;;;;;;;8.60;7.60;;;;;11.34;44.91;100001.22;6263609;27;96561;-65
2021/12/17 05:26:56;;;;;;;;;9.00;8.00;;;;;11.41;44.82;99996.66;6247859;27;97594;-65
2021/12/17 05:30:02;;;;;;;;;8.33;7.00;;;;;11.32;44.51;99997.88;6248563;27;97428;-65
2021/12/17 05:33:08;;;;;;;;;9.60;7.00;;;;;11.33;44.33;100000.38;6242224;27;96687;-65
2021/12/17 05:36:11;;;;;;;;;6.00;6.00;;;;;11.22;44.22;99976.63;6264662;27;96722;-65
2021/12/17 05:39:27;;;;;;;;;7.00;6.00;;;;;11.26;43.99;99972.50;6222628;28;97176;-65
2021/12/17 05:42:34;;;;;;;;;6.25;6.00;;;;;11.30;44.09;99989.97;6222770;27;99446;-65
2021/12/17 05:49:18;;;;;;;;;6.60;6.00;;;;;11.23;44.38;99997.19;6233076;28;97543;-66
2021/12/17 05:52:22;;;;;;;;;6.00;6.00;;;;;11.33;44.20;100010.34;6217579;27;98624;-66
2021/12/17 05:55:25;;;;;;;;;6.00;6.00;;;;;11.40;44.09;99998.53;6230552;27;98587;-66
2021/12/17 05:58:29;;;;;;;;;8.00;7.00;;;;;11.47;43.93;99995.88;6230331;27;98467;-64
2021/12/17 06:01:33;;;;;;;;;5.80;5.00;;;;;11.42;43.90;99992.94;6239659;27;98093;-65
2021/12/17 06:04:38;;;;;;;;;7.00;6.00;;;;;11.46;44.08;100002.31;6240375;27;96784;-65
2021/12/17 06:07:42;;;;;;;;;8.00;7.00;;;;;11.44;44.01;99997.09;6207804;27;96790;-66
2021/12/17 06:10:45;;;;;;;;;7.80;7.00;;;;;11.47;43.88;100006.66;6232237;28;97530;-65
2021/12/17 06:13:50;;;;;;;;;7.00;6.00;;;;;11.54;43.70;100019.16;6226587;27;97228;-66
2021/12/17 06:16:54;;;;;;;;;8.00;7.20;;;;;11.45;43.40;100012.25;6236496;27;97603;-65
2021/12/17 06:20:09;;;;;;;;;6.00;6.00;;;;;11.47;43.50;100018.31;6218320;27;96900;-65
2021/12/17 06:23:14;;;;;;;;;7.00;6.60;;;;;11.47;43.32;100022.88;6231183;28;97482;-65
2021/12/17 06:26:18;;;;;;;;;6.60;6.60;;;;;11.28;43.24;100027.97;6230482;27;100204;-66
2021/12/17 06:29:22;;;;;;;;;8.00;7.00;;;;;11.21;43.38;100029.78;6247687;27;97497;-64
2021/12/17 06:32:34;;;;;;;;;6.00;6.00;;;;;11.18;43.14;100043.69;6246800;27;97448;-66
2021/12/17 06:35:40;;;;;;;;;7.00;6.00;;;;;11.20;43.50;100035.38;6242625;27;97533;-67
2021/12/17 06:38:43;;;;;;;;;6.00;6.00;;;;;11.24;43.46;100048.28;6259958;27;97079;-66
2021/12/17 06:41:49;;;;;;;;;7.00;6.60;;;;;11.24;43.25;100042.03;6246623;27;97508;-66
2021/12/17 06:44:56;;;;;;;;;8.00;7.00;;;;;11.29;43.27;100040.41;6240462;27;97264;-67
2021/12/17 06:47:59;;;;;;;;;7.40;6.00;;;;;11.31;43.08;100045.63;6237362;27;97026;-65
2021/12/17 06:54:49;;;;;;;;;6.80;5.80;;;;;11.28;43.30;100041.47;6204018;28;99666;-66
2021/12/17 07:23:13;;;;;;;;;6.60;6.00;;;;;11.22;42.66;100027.91;6195344;28;97129;-66
2021/12/17 07:33:36;;;;;;;;;6.00;6.00;;;;;10.95;43.20;100039.53;6188653;28;100492;-66
2021/12/17 07:40:25;;;;;;;;;5.00;5.00;;;;;10.98;43.52;100022.97;6226317;27;97759;-67
2021/12/17 07:43:37;;;;;;;;;8.00;6.00;;;;;10.98;43.36;100015.72;6243797;27;97483;-67
2021/12/17 07:46:48;;;;;;;;;8.00;6.00;;;;;11.03;43.33;100015.13;6238274;27;96763;-66
2021/12/17 07:49:51;;;;;;;;;8.00;7.00;;;;;11.13;43.47;100013.75;6236759;27;96881;-67
2021/12/17 07:52:55;;;;;;;;;6.00;5.20;;;;;11.10;43.21;100011.44;6220158;27;97816;-66
2021/12/17 07:56:00;;;;;;;;;7.00;5.80;;;;;11.12;43.48;100012.06;6231156;27;98439;-67
2021/12/17 07:59:11;;;;;;;;;8.00;7.80;;;;;11.07;43.20;100006.44;6220835;27;98444;-67
2021/12/17 08:02:15;;;;;;;;;7.00;6.00;;;;;11.16;43.35;100007.09;6230071;27;97068;-67
2021/12/17 08:05:26;;;;;;;;;6.60;6.00;;;;;11.22;43.38;100009.03;6226420;27;97060;-66
2021/12/17 08:08:30;;;;;;;;;7.50;6.50;;;;;11.21;43.14;100013.59;6244683;27;97231;-66
2021/12/17 08:11:54;;;;;;;;;11.00;9.00;;;;;11.18;43.23;100011.28;6219010;27;97415;-65
2021/12/17 08:14:59;;;;;;;;;7.00;6.00;;;;;11.20;43.53;100011.91;6235057;27;98134;-66
2021/12/17 08:25:10;;;;;;;;;6.50;6.00;;;;;11.20;43.27;100019.19;6234289;27;96888;-67
2021/12/17 08:28:17;;;;;;;;;6.00;5.50;;;;;11.36;43.12;100026.13;6239990;27;97633;-66
2021/12/17 08:31:22;;;;;;;;;8.00;7.00;;;;;11.30;43.18;100019.66;6217167;27;96744;-65
2021/12/17 08:34:25;;;;;;;;;7.00;6.00;;;;;11.34;43.16;100042.50;6215793;27;96949;-66
2021/12/17 08:37:32;;;;;;;;;6.50;6.00;;;;;11.46;42.89;100035.53;6228108;27;96828;-65
2021/12/17 08:40:39;;;;;;;;;6.00;5.75;;;;;11.44;43.12;100037.59;6243837;27;96901;-66
2021/12/17 08:43:43;;;;;;;;;6.00;6.00;;;;;11.34;43.29;100044.41;6242070;27;97060;-66
2021/12/17 08:46:48;;;;;;;;;8.00;6.00;;;;;11.37;43.21;100035.91;6239891;27;97882;-64
2021/12/17 08:50:05;;;;;;;;;6.00;4.60;;;;;11.40;43.39;100046.28;6228431;27;96783;-63
2021/12/17 08:53:08;;;;;;;;;8.00;6.00;;;;;11.44;43.20;100050.25;6233001;27;97387;-67
2021/12/17 08:56:14;;;;;;;;;6.20;5.20;;;;;11.34;43.25;100056.03;6242494;27;97621;-67
2021/12/17 08:59:19;;;;;;;;;7.00;6.40;;;;;11.32;43.04;100059.97;6227391;27;97412;-67
2021/12/17 09:02:59;;;;;;;;;8.75;7.00;;;;;11.24;43.10;100060.94;6254095;27;97414;-66
2021/12/17 09:06:28;;;;;;;;;8.75;6.00;;;;;11.20;43.50;100065.91;6234205;27;97974;-69
2021/12/17 09:09:32;;;;;;;;;6.60;6.00;;;;;10.87;43.73;100062.13;6237333;27;97043;-66
2021/12/17 09:12:46;;;;;;;;;6.75;6.00;;;;;11.18;43.81;100075.25;6235631;27;96777;-65
2021/12/17 09:15:49;;;;;;;;;6.00;6.00;;;;;11.33;43.75;100067.03;6241245;27;97070;-67
2021/12/17 09:19:09;;;;;;;;;6.60;6.00;;;;;11.25;43.59;100071.53;6242172;27;96859;-68
2021/12/17 09:22:38;;;;;;;;;8.00;7.00;;;;;11.44;46.38;100064.59;6231202;27;99470;-65
2021/12/17 09:25:44;;;;;;;;;6.80;6.80;;;;;11.47;43.80;100063.38;6232689;28;96884;-65
2021/12/17 09:28:53;;;;;;;;;6.00;6.00;;;;;11.64;43.43;100062.84;6217771;27;99691;-65
2021/12/17 09:31:57;;;;;;;;;5.80;5.00;;;;;11.71;42.90;100052.09;6248600;27;96921;-65
2021/12/17 09:35:02;;;;;;;;;7.00;5.00;;;;;11.76;42.72;100054.22;6246125;27;96708;-62
2021/12/17 09:38:06;;;;;;;;;6.00;5.00;;;;;11.83;42.67;100055.91;6252920;27;96695;-62
2021/12/17 09:41:10;;;;;;;;;7.00;6.00;;;;;11.86;42.08;100038.47;6239323;27;99582;-67
2021/12/17 09:44:15;;;;;;;;;7.20;6.20;;;;;11.93;42.05;100050.94;6241332;27;97371;-66
2021/12/17 09:47:18;;;;;;;;;7.20;6.00;;;;;11.89;41.90;100038.03;6252149;27;96598;-62
2021/12/17 09:50:23;;;;;;;;;6.00;5.00;;;;;11.90;41.80;100037.03;6218614;27;98555;-62
2021/12/17 09:53:26;;;;;;;;;8.80;6.00;;;;;11.89;42.26;100033.47;6236812;27;97128;-66
2021/12/17 09:56:30;;;;;;;;;6.00;5.60;;;;;11.78;42.08;100011.63;6239950;27;97483;-64
2021/12/17 09:59:33;;;;;;;;;7.50;7.00;;;;;11.96;41.97;100026.25;6227431;27;98533;-65
2021/12/17 10:02:36;;;;;;;;;5.00;5.00;;;;;12.01;41.69;100026.47;6246821;27;99530;-63
2021/12/17 10:05:43;;;;;;;;;7.50;6.00;;;;;11.96;41.33;100017.28;6261475;27;97412;-63
2021/12/17 10:08:48;;;;;;;;;7.00;6.40;;;;;11.88;41.68;100021.00;6227109;27;97425;-64
2021/12/17 10:12:02;;;;;;;;;8.00;7.60;;;;;11.86;41.90;100017.69;6238076;27;96591;-66
2021/12/17 10:15:09;;;;;;;;;7.80;6.80;;;;;11.93;41.81;100018.53;6250829;27;97606;-64
2021/12/17 10:18:13;;;;;;;;;7.60;6.00;;;;;11.97;41.57;100008.97;6247823;27;97258;-65
2021/12/17 10:21:22;;;;;;;;;6.00;6.00;;;;;11.93;41.50;100005.00;6261658;22;98942;-65
2021/12/17 10:24:26;;;;;;;;;4.60;4.60;;;;;11.98;41.41;99999.00;6206980;28;97178;-64
2021/12/17 10:27:31;;;;;;;;;7.75;6.00;;;;;12.05;41.46;100000.69;6211220;28;98084;-63
2021/12/17 10:30:37;;;;;;;;;6.00;6.00;;;;;12.01;41.49;99998.59;6210201;28;97252;-64
2021/12/17 10:33:50;;;;;;;;;7.00;6.00;;;;;11.99;41.42;99997.97;6193356;28;98478;-62
2021/12/17 10:36:54;;;;;;;;;8.00;6.60;;;;;12.12;41.49;99981.75;6207525;28;97474;-64
2021/12/17 10:39:58;;;;;;;;;7.00;6.60;;;;;12.17;41.48;99994.69;6206877;28;98166;-64
2021/12/17 10:43:08;;;;;;;;;7.00;6.00;;;;;12.17;41.67;100000.09;6211423;28;97631;-65
2021/12/17 10:46:22;;;;;;;;;8.00;6.00;;;;;12.12;40.97;99998.81;6198029;28;96705;-62
2021/12/17 10:49:26;;;;;;;;;7.20;6.00;;;;;12.09;40.97;99985.72;6203100;28;96520;-63
2021/12/17 10:52:36;;;;;;;;;8.00;6.40;;;;;12.17;41.10;99998.19;6211191;28;97158;-66
2021/12/17 10:55:40;;;;;;;;;7.00;6.00;;;;;12.14;41.16;99998.63;6209079;28;97472;-64
2021/12/17 10:58:56;;;;;;;;;7.00;5.00;;;;;12.13;40.78;100002.34;6208701;28;99595;-62
2021/12/17 11:02:05;;;;;;;;;8.00;8.00;;;;;12.03;40.88;99994.66;6211701;28;98823;-63
2021/12/17 11:05:13;;;;;;;;;7.00;7.00;;;;;11.98;41.13;99999.00;6210162;28;96908;-63
2021/12/17 11:08:28;;;;;;;;;7.00;6.80;;;;;11.89;41.16;99994.81;6212198;28;96444;-63
2021/12/17 11:11:33;;;;;;;;;8.00;7.00;;;;;11.94;41.40;99995.88;6210003;28;97201;-62
2021/12/17 11:14:37;;;;;;;;;8.00;7.60;;;;;12.03;41.41;99985.69;6211437;28;97215;-64
2021/12/17 11:17:41;;;;;;;;;7.50;7.00;;;;;12.07;41.06;99990.50;6205633;28;97365;-64
2021/12/17 11:20:45;;;;;;;;;7.00;6.00;;;;;12.13;41.00;99986.13;6208878;28;97145;-62
2021/12/17 11:23:51;;;;;;;;;7.75;7.00;;;;;12.18;41.07;99982.81;6210525;28;97458;-64
2021/12/17 11:26:54;;;;;;;;;8.00;6.60;;;;;12.10;40.94;99971.19;6208592;28;98615;-63
2021/12/17 11:29:58;;;;;;;;;8.00;7.40;;;;;12.08;40.79;99975.94;6210376;28;97531;-65
2021/12/17 11:33:04;;;;;;;;;8.80;8.20;;;;;12.11;40.45;99970.16;6209251;28;99510;-64
2021/12/17 11:36:07;;;;;;;;;9.00;8.00;;;;;12.10;40.69;99978.44;6192585;28;98754;-63
2021/12/17 11:39:20;;;;;;;;;8.00;7.60;;;;;11.99;40.57;99969.06;6209643;28;96473;-63
2021/12/17 11:42:41;;;;;;;;;9.00;9.00;;;;;12.07;40.81;99968.88;6210098;28;97376;-64
2021/12/17 11:45:56;;;;;;;;;8.40;8.40;;;;;12.01;40.59;99969.72;6224178;28;97255;-64
2021/12/17 11:49:02;;;;;;;;;7.00;6.40;;;;;12.08;42.35;99959.72;6210427;28;97469;-68
2021/12/17 11:52:06;;;;;;;;;11.00;9.00;;;;;12.17;41.09;99963.06;6206114;28;98318;-67
2021/12/17 11:55:34;;;;;;;;;9.40;9.40;;;;;12.41;40.66;99965.16;6207932;28;98081;-64
2021/12/17 11:58:49;;;;;;;;;10.00;10.00;;;;;12.42;40.18;99955.19;6212571;28;97640;-69
2021/12/17 12:02:01;;;;;;;;;9.00;8.00;;;;;12.10;40.42;99965.78;6209490;28;98227;-66
2021/12/17 12:05:06;;;;;;;;;7.20;6.80;;;;;12.19;40.72;99955.59;6219249;27;97867;-65
2021/12/17 12:08:28;;;;;;;;;6.00;6.00;;;;;11.98;40.73;99966.56;6207053;28;96474;-65
2021/12/17 12:11:32;;;;;;;;;11.00;8.50;;;;;11.84;40.97;99957.59;6205953;28;97089;-64
2021/12/17 12:14:37;;;;;;;;;7.80;7.80;;;;;11.82;41.06;99956.97;6209225;28;97314;-65
2021/12/17 12:18:12;;;;;;;;;9.20;8.00;;;;;11.83;41.15;99953.22;6204426;28;98000;-65
2021/12/17 12:21:18;;;;;;;;;9.25;9.00;;;;;11.84;40.87;99962.16;6201551;28;97949;-65
2021/12/17 12:24:21;;;;;;;;;11.00;10.20;;;;;11.86;41.01;99963.63;6218410;28;97268;-66
2021/12/17 12:27:30;;;;;;;;;9.00;8.60;;;;;11.61;40.64;99970.59;6203738;28;97010;-64
2021/12/17 12:30:38;;;;;;;;;8.20;7.00;;;;;11.20;40.86;99960.63;6204909;28;96763;-65
2021/12/17 12:34:10;;;;;;;;;6.20;5.20;;;;;11.41;41.06;99967.78;6209026;28;97269;-66
2021/12/17 12:37:33;;;;;;;;;11.00;9.00;;;;;11.43;41.17;99971.16;6199381;28;97434;-63
2021/12/17 12:40:43;;;;;;;;;9.00;8.00;;;;;11.39;41.88;99974.41;6211340;28;96703;-66
2021/12/17 12:43:49;;;;;;;;;9.00;9.00;;;;;11.38;42.00;99972.78;6208767;28;98014;-65
2021/12/17 12:46:56;;;;;;;;;9.80;9.00;;;;;11.37;42.22;99968.41;6207697;28;98037;-65
2021/12/17 12:50:10;;;;;;;;;11.00;9.50;;;;;11.28;41.99;99973.97;6209161;28;97508;-65
2021/12/17 12:53:13;;;;;;;;;8.00;8.00;;;;;11.30;41.86;99971.06;6207744;28;97866;-66
2021/12/17 12:56:19;;;;;;;;;10.80;8.60;;;;;11.33;41.88;99973.38;6210469;28;97699;-64
2021/12/17 12:59:26;;;;;;;;;9.40;9.00;;;;;11.25;41.62;99962.72;6209625;28;96938;-65
2021/12/17 13:02:29;;;;;;;;;9.00;9.00;;;;;11.23;41.92;99962.09;6207821;28;97071;-64
2021/12/17 13:05:34;;;;;;;;;8.50;8.50;;;;;11.23;41.87;99960.25;6209288;28;99350;-63
2021/12/17 13:08:37;;;;;;;;;10.00;9.00;;;;;11.20;41.80;99965.19;6212715;28;96866;-64
2021/12/17 13:11:45;;;;;;;;;9.00;8.00;;;;;11.17;42.42;99961.03;6212621;28;97174;-64
2021/12/17 13:14:50;;;;;;;;;9.60;8.60;;;;;11.15;42.21;99955.00;6209806;28;96858;-65
2021/12/17 13:25:24;;;;;;;;;7.00;7.00;;;;;11.17;42.25;99947.53;6084901;28;97039;-65
2021/12/17 13:28:27;;;;;;;;;8.00;6.00;;;;;11.05;42.45;99959.91;6091240;28;97240;-65
2021/12/17 13:31:35;;;;;;;;;9.00;8.00;;;;;11.02;42.71;99959.47;6073088;28;97855;-64
2021/12/17 13:34:40;;;;;;;;;7.00;6.50;;;;;11.15;42.54;99962.25;6092255;28;97089;-65
2021/12/17 13:37:44;;;;;;;;;8.50;7.50;;;;;11.18;42.45;99956.47;6090931;28;97227;-66
2021/12/17 13:40:52;;;;;;;;;11.00;10.00;;;;;11.16;42.43;99963.94;6090952;28;96967;-66
2021/12/17 13:43:56;;;;;;;;;8.00;7.00;;;;;11.13;42.44;99959.78;6090577;28;97494;-66
2021/12/17 13:47:16;;;;;;;;;9.20;7.20;;;;;11.17;42.33;99962.91;6089068;28;97496;-65
2021/12/17 13:50:22;;;;;;;;;10.00;9.00;;;;;11.25;42.37;99970.81;6089100;28;97246;-67
2021/12/17 13:53:26;;;;;;;;;10.00;7.60;;;;;11.23;42.42;99962.94;6090168;28;96780;-67
2021/12/17 13:56:56;;;;;;;;;9.00;8.00;;;;;11.24;42.24;99969.16;6090425;28;96741;-67
2021/12/17 14:00:07;;;;;;;;;9.60;8.60;;;;;11.01;42.63;99968.59;6102848;28;98394;-66
2021/12/17 14:03:19;;;;;;;;;8.60;7.00;;;;;11.06;42.78;99966.97;6089126;28;96708;-66
2021/12/17 14:06:25;;;;;;;;;9.40;9.00;;;;;11.17;42.58;99969.13;6091084;28;96601;-66
2021/12/17 14:09:28;;;;;;;;;9.00;8.80;;;;;11.16;42.59;99967.47;6103429;28;97323;-65
2021/12/17 14:12:36;;;;;;;;;12.00;9.00;;;;;11.07;42.62;99944.38;6088407;28;96634;-66
2021/12/17 14:16:00;;;;;;;;;9.00;8.75;;;;;11.17;42.18;99963.72;6088883;28;97366;-65
2021/12/17 14:19:05;;;;;;;;;9.60;9.00;;;;;11.27;42.26;99963.38;6087478;28;97024;-64
2021/12/17 14:22:26;;;;;;;;;9.20;8.00;;;;;11.27;42.45;99966.06;6085325;28;97660;-65
2021/12/17 14:25:34;;;;;;;;;10.00;8.75;;;;;11.25;42.43;99970.81;6104420;28;97082;-66
2021/12/17 14:28:40;;;;;;;;;9.40;8.40;;;;;11.28;42.28;99959.66;6097888;28;97128;-65
2021/12/17 14:31:44;;;;;;;;;8.60;8.00;;;;;11.24;42.31;99963.75;6103783;28;96560;-64
2021/12/17 14:34:48;;;;;;;;;8.00;8.00;;;;;11.19;42.24;99968.94;6112108;28;96884;-64
2021/12/17 14:37:54;;;;;;;;;8.00;7.60;;;;;11.15;42.60;99957.69;6090669;28;96632;-67
2021/12/17 14:41:00;;;;;;;;;11.80;9.20;;;;;11.18;42.23;99957.31;6104684;28;97926;-64
2021/12/17 14:44:19;;;;;;;;;11.00;9.80;;;;;11.25;42.26;99960.84;6092333;28;98056;-64
2021/12/17 14:47:24;;;;;;;;;11.40;9.60;;;;;11.26;42.55;99961.69;6094473;28;97159;-64
2021/12/17 14:57:47;;;;;;;;;9.00;9.00;;;;;11.30;42.14;99971.91;6096039;28;97730;-65
2021/12/17 15:00:57;;;;;;;;;13.00;10.75;;;;;11.38;42.12;99967.38;6111476;28;97412;-64
2021/12/17 15:04:00;;;;;;;;;11.00;10.00;;;;;11.33;42.31;99969.84;6113051;28;97979;-65
2021/12/17 15:07:06;;;;;;;;;10.25;9.25;;;;;11.35;42.10;99965.06;6101905;28;99652;-66
2021/12/17 15:10:12;;;;;;;;;8.80;8.00;;;;;11.44;41.98;99971.94;6111869;28;97471;-66
2021/12/17 15:13:16;;;;;;;;;9.00;8.00;;;;;11.22;42.41;99971.22;6110705;28;97891;-65
2021/12/17 15:16:19;;;;;;;;;10.00;9.00;;;;;11.30;42.34;99965.66;6107688;28;97112;-66
2021/12/17 15:19:23;;;;;;;;;13.20;9.20;;;;;11.28;42.52;99976.69;6094868;28;98586;-67
2021/12/17 15:22:28;;;;;;;;;10.00;9.00;;;;;11.27;42.71;99958.81;6109199;28;97354;-65
2021/12/17 15:25:33;;;;;;;;;12.00;9.00;;;;;11.24;42.66;99979.94;6111072;28;97721;-65
2021/12/17 15:28:36;;;;;;;;;12.00;10.20;;;;;11.35;42.56;99968.59;6108834;28;97386;-65
2021/12/17 15:31:40;;;;;;;;;11.00;10.00;;;;;11.45;42.45;99979.03;6107474;28;97538;-64
2021/12/17 15:34:43;;;;;;;;;9.00;9.00;;;;;11.42;42.64;99982.97;6108906;28;97423;-64
2021/12/17 15:37:50;;;;;;;;;11.20;10.00;;;;;11.14;42.53;99942.53;6111537;28;97316;-64
2021/12/17 15:40:53;;;;;;;;;11.67;9.67;;;;;11.38;42.74;99997.91;6092510;28;97926;-65
2021/12/17 15:43:57;;;;;;;;;11.80;11.00;;;;;11.44;42.49;99993.56;6095095;28;96808;-65
2021/12/17 15:47:08;;;;;;;;;11.00;10.60;;;;;11.44;42.59;100004.34;6097143;28;97474;-65
2021/12/17 15:50:15;;;;;;;;;12.00;10.00;;;;;11.33;42.26;100004.94;6110998;28;98159;-64
2021/12/17 15:53:20;;;;;;;;;12.00;11.20;;;;;11.34;42.52;99999.31;6110399;28;97431;-63
2021/12/17 15:56:23;;;;;;;;;12.75;10.75;;;;;11.39;42.49;100006.81;6096755;28;96537;-64
2021/12/17 15:59:27;;;;;;;;;12.00;10.50;;;;;11.28;42.50;100003.69;6109512;28;96965;-64
2021/12/17 16:02:30;;;;;;;;;12.00;11.00;;;;;11.19;42.72;100002.13;6097972;28;99605;-64
2021/12/17 16:05:35;;;;;;;;;14.00;12.40;;;;;11.03;43.30;99999.78;6098824;28;99236;-64
2021/12/17 16:08:44;;;;;;;;;12.60;11.00;;;;;11.08;43.22;100002.72;6104280;28;97740;-64
2021/12/17 16:11:57;;;;;;;;;14.40;14.00;;;;;11.06;43.23;100002.06;6107317;28;97110;-65
2021/12/17 16:18:40;;;;;;;;;15.00;13.00;;;;;11.01;43.27;99982.94;6109384;28;98484;-65
2021/12/17 16:21:45;;;;;;;;;15.00;13.00;;;;;11.22;43.10;99982.03;6095161;28;97833;-65
2021/12/17 16:24:49;;;;;;;;;14.00;13.00;;;;;11.16;43.00;99991.75;6111658;28;97483;-64
2021/12/17 16:27:53;;;;;;;;;13.60;12.00;;;;;11.30;42.73;99981.84;6111642;28;97159;-65
2021/12/17 16:31:07;;;;;;;;;13.50;12.50;;;;;11.38;42.72;99997.91;6115311;28;97064;-64
2021/12/17 16:34:10;;;;;;;;;13.00;13.00;;;;;11.40;42.54;100000.38;6116164;28;97462;-65
2021/12/17 16:37:15;;;;;;;;;15.00;12.20;;;;;11.24;42.67;99990.75;6097420;28;98498;-64
2021/12/17 16:40:20;;;;;;;;;13.75;12.00;;;;;11.12;43.03;99987.78;6116941;28;96889;-64
2021/12/17 16:43:23;;;;;;;;;14.00;14.00;;;;;11.21;42.91;99993.84;6117480;28;96649;-67
2021/12/17 16:49:44;;;;;;;;;16.00;14.75;;;;;11.35;42.87;100001.00;6112510;28;98148;-67
2021/12/17 16:52:48;;;;;;;;;14.00;13.50;;;;;11.29;42.81;99997.22;6116952;28;96628;-69
2021/12/17 16:55:52;;;;;;;;;17.33;14.00;;;;;11.33;42.63;99984.19;6116216;28;98613;-67
2021/12/17 16:58:56;;;;;;;;;16.00;13.00;;;;;11.29;42.85;99983.72;6115036;28;97419;-67
2021/12/17 17:02:00;;;;;;;;;16.80;14.20;;;;;11.30;42.76;99980.00;6112384;28;97405;-66
2021/12/17 17:05:04;;;;;;;;;17.00;15.00;;;;;11.27;42.72;99991.19;6118958;28;97350;-66
2021/12/17 17:08:07;;;;;;;;;17.60;15.00;;;;;11.24;42.84;99993.44;6099012;28;96686;-66
2021/12/17 17:11:14;;;;;;;;;16.00;14.40;;;;;11.30;42.77;99996.19;6109401;28;97548;-67
2021/12/17 17:14:18;;;;;;;;;18.00;15.00;;;;;11.27;42.66;99999.31;6101084;28;97513;-67
2021/12/17 17:17:22;;;;;;;;;15.00;14.00;;;;;11.42;42.38;99999.19;6119968;28;96540;-65
2021/12/17 17:20:26;;;;;;;;;14.00;13.00;;;;;11.34;42.42;100010.13;6108409;28;97118;-67
2021/12/17 17:23:29;;;;;;;;;15.00;13.40;;;;;11.30;42.79;100006.16;6108085;28;96569;-68
2021/12/17 17:26:34;;;;;;;;;15.00;13.00;;;;;11.45;42.52;100019.53;6113901;28;96357;-66